Résultats

Cross Nativitée C01 : 2des Filles. Édition 2018.

0 Km
23/03/2018 à 08:20:00 - ()
101 arrivant(e)s.


 
Les autres classements de cet évènement




Place▲ Temps Dossard Nom Prenom Categ #Categ Sexe #Sexe ClubVit Moy Diplôme Partager
1 00:05:27 423 PEYRE MANON CAF 1 F 1 2-614.00
2 00:05:33 246 SANNA AURELIE CAF 2 F 2 2-114.00
3 00:05:35 329 N:Anonyme 329 P:Anonyme 329 CAF 3 F 3 2-413.00
4 00:05:40 387 SIROT CLARA CAF 4 F 4 2-513.00
5 00:05:46 256 BOONEKAMP MATHILDE CAF 5 F 5 2-213.00
6 00:05:46 459 NICASTRO ALICE CAF 6 F 6 2-713.00
7 00:05:51 320 SUZOR ANAELLE CAF 7 F 7 2-313.00
8 00:05:57 281 RAYMONDO JULIE CAF 8 F 8 2-213.00
9 00:05:58 340 LEMAIRE LANNA CAF 9 F 9 2-413.00
10 00:06:02 244 NICOLLE ILLONA MIF 1 F 10 2-112.00
11 00:06:04 443 COURSON ELEA CAF 10 F 11 2-712.00
12 00:06:10 431 TILLARD LOU CAF 11 F 12 2-612.00
13 00:06:12 428 ROUZAUD PAULINE CAF 12 F 13 2-612.00
14 00:06:15 427 RODRIGUEZ CLEMENTINE CAF 13 F 14 2-612.00
15 00:06:15 398 ZAKARIAN AMELIE CAF 14 F 15 2-512.00
16 00:06:16 370 GUICHARD JADE MIF 2 F 16 2-512.00
17 00:06:16 338 HENNO HORTENSE CAF 15 F 17 2-412.00
18 00:06:18 265 GANTER CECILE MIF 3 F 18 2-212.00
19 00:06:18 356 TANKOSIC EVA CAF 16 F 19 2-412.00
20 00:06:27 324 BENIER ALEXANDRA CAF 17 F 20 2-412.00
21 00:06:28 418 JUBERT PAULINE CAF 18 F 21 2-612.00
22 00:06:28 289 BENCHENAFI ANISSA MIF 4 F 22 2-312.00
23 00:06:30 429 RUHLING CHARLOTTE CAF 19 F 23 2-612.00
24 00:06:30 433 VERA ELODIE CAF 20 F 24 2-612.00
25 00:06:31 405 BONDIL VICTORIA CAF 21 F 25 2-611.00
26 00:06:35 286 AUGENIE LISE CAF 22 F 26 2-311.00
27 00:06:36 328 CHARBIT YAEL CAF 23 F 27 2-411.00
28 00:06:37 277 POMEL AMELIE CAF 24 F 28 2-211.00
29 00:06:37 220 CHIARIGLIONE MATHILDE CAF 25 F 29 2-111.00
30 00:06:38 468 VIDAL NOA CAF 26 F 30 2-711.00
31 00:06:38 264 DWORSKI GIULIETTA JUF 1 F 31 2-211.00
32 00:06:40 327 CATAU CLARA CAF 27 F 32 2-411.00
33 00:06:40 454 HOARAU JEANNE CAF 28 F 33 2-711.00
34 00:06:41 314 PARISOT MANON MIF 5 F 34 2-311.00
35 00:06:41 278 PONS-DE-VINCENT LOUISE CAF 29 F 35 2-211.00
36 00:06:43 251 ANDRE-GALLIS LILA CAF 30 F 36 2-211.00
37 00:06:46 392 TOUTIN HELOISE CAF 31 F 37 2-511.00
38 00:06:49 400 BARONE AMELIE CAF 32 F 38 2-611.00
39 00:06:51 446 DRIEUX MADISON CAF 33 F 39 2-711.00
40 00:06:52 279 POUSSARDIN ELISA CAF 34 F 40 2-211.00
41 00:06:53 235 LE-MEUR MATHILDE CAF 35 F 41 2-111.00
42 00:06:54 214 BARTHELEMY MANON CAF 36 F 42 2-111.00
43 00:06:56 318 RODRIGUES JULIETTE CAF 37 F 43 2-311.00
44 00:06:57 343 MAROTTE COLOMBE CAF 38 F 44 2-411.00
45 00:06:59 357 THOMASSIN EVA CAF 39 F 45 2-411.00
46 00:07:01 311 MESLIERE LOU CAF 40 F 46 2-311.00
47 00:07:01 460 PAYAN LISA CAF 41 F 47 2-711.00
48 00:07:03 441 CHEFDOR CLAIRE CAF 42 F 48 2-711.00
49 00:07:03 309 KHATCHOUGUIAN-TOUROIAN ANAHITE CAF 43 F 49 2-311.00
50 00:07:04 404 BLANC LOU-ANNE CAF 44 F 50 2-611.00
51 00:07:05 407 CHARLAIX SMILLA CAF 45 F 51 2-611.00
52 00:07:06 307 HERLAND DORIANE CAF 46 F 52 2-310.00
53 00:07:10 276 PIOT-D'HALLUIN VICTORIA CAF 47 F 53 2-210.00
54 00:07:10 238 MARIN YSALINE CAF 48 F 54 2-110.00
55 00:07:11 408 CHAVRIER INES CAF 49 F 55 2-610.00
56 00:07:19 355 SPINNEWYN JEANNE MIF 6 F 56 2-410.00
57 00:07:20 349 NADAL INES CAF 50 F 57 2-410.00
58 00:07:21 274 MILLARD JUSTINE CAF 51 F 58 2-210.00
59 00:07:22 462 ROUGY MANON CAF 52 F 59 2-710.00
60 00:07:23 217 BERTIN JULINE CAF 53 F 60 2-110.00
61 00:07:23 442 CHENEAU LAURE CAF 54 F 61 2-710.00
62 00:07:23 259 BRIERE INES CAF 55 F 62 2-210.00
63 00:07:23 422 PENEAU LUCIE CAF 56 F 63 2-610.00
64 00:07:26 267 HUBLAU PAULINE CAF 57 F 64 2-210.00
65 00:07:28 464 SANTIAGO CHLOE CAF 58 F 65 2-710.00
66 00:07:30 224 DECOMMER EUGENIE CAF 59 F 66 2-110.00
67 00:07:31 321 THAON PAULINE CAF 60 F 67 2-310.00
68 00:07:36 360 VIDAL ELODIE CAF 61 F 68 2-410.00
69 00:07:39 379 NASSI AMELIE MIF 7 F 69 2-510.00
70 00:07:40 218 BERTRAND SOLENE CAF 62 F 70 2-110.00
71 00:07:42 222 DAVID ANNE-LYSE CAF 63 F 71 2-110.00
72 00:07:44 221 DARMON SOLENE CAF 64 F 72 2-110.00
73 00:07:45 453 GORGODIAN SUZANNE CAF 65 F 73 2-710.00
74 00:07:45 458 MENDES SARAH CAF 66 F 74 2-710.00
75 00:07:46 335 FERRY LUCILE CAF 67 F 75 2-410.00
76 00:07:47 239 MARTINEZ MARIE CAF 68 F 76 2-110.00
77 00:07:56 280 RABADEUX ELENA CAF 69 F 77 2-29.00
78 00:07:58 232 JACOULET ANOUK CAF 70 F 78 2-19.00
79 00:08:02 271 MARIDAT JEANNE CAF 71 F 79 2-29.00
80 00:08:05 437 AYMARD LIZ CAF 72 F 80 2-79.00
81 00:08:11 339 LE-MOAL AMANDINE CAF 73 F 81 2-49.00
82 00:08:19 213 BARTHE ALIX CAF 74 F 82 2-19.00
83 00:08:26 445 DEVALLOIS ELISA CAF 75 F 83 2-79.00
84 00:08:28 471 WOLFF CHARLOTTE CAF 76 F 84 2-79.00
85 00:08:34 219 BONHOMME EMMA CAF 77 F 85 2-19.00
86 00:08:36 374 JAULGEY MANON MIF 8 F 86 2-59.00
87 00:08:37 241 MEYNIEUX BLANCHE CAF 78 F 87 2-19.00
88 00:08:38 382 RAPALLINI JADE CAF 79 F 88 2-59.00
89 00:08:39 290 N:Anonyme 290 P:Anonyme 290 CAF 80 F 89 2-39.00
90 00:08:41 315 POHIER-PLANTEL LENA MIF 9 F 90 2-38.00
91 00:08:54 332 DAUMAS CAROLINE CAF 81 F 91 2-48.00
92 00:09:00 351 RAMEL BLANCHE CAF 82 F 92 2-48.00
93 00:09:04 297 CHOVELON EMMA CAF 83 F 93 2-38.00
94 00:09:05 383 RICHAUD OCEANE CAF 84 F 94 2-58.00
95 00:09:06 377 MARTIN AMBRE CAF 85 F 95 2-58.00
96 00:09:14 465 SOLE LOLA CAF 86 F 96 2-78.00
97 00:09:16 243 MOLLER LOUISE CAF 87 F 97 2-18.00
98 00:09:32 389 TEDESCO CLARA CAF 88 F 98 2-58.00
99 00:09:34 391 TOURET SOPHIE CAF 89 F 99 2-58.00
100 00:09:35 358 TRANCHANT MAE CAF 90 F 100 2-48.00
101 00:09:35 346 MONMAGNON VICTORIA MIF 10 F 101 2-48.00